Sahiwal Weather



Sahiwal's Current Weather

Temprature 44.062o clear sky

clear sky

Rain: 0 %

Min Temprature44.062o
Max Temprature44.062o
Humidity16
Wind Speed4.29 m/h
Sun Rise05:06:26
Sun Set19:13:58
Current Time: 26-Jun-2019 14:54:50
Lat/Lon: 30.67, 73.11




Sahiwal's Geo Location



Sahiwal's Weather Forecast

Time Overall Temp Min Temp Max Temp Humidity Wind Speed Rain
26-Jun-2019 (Wed)
17:00:00 clear sky 44.050 44.050 44.050 14 4.16 m/h 0 %
20:00:00 clear sky 39.550 39.547 39.550 19 2.86 m/h 0 %
23:00:00 clear sky 36.940 36.940 36.940 25 3.97 m/h 0 %
27-Jun-2019 (Thu)
02:00:00 clear sky 34.980 34.979 34.980 29 1.97 m/h 0 %
05:00:00 clear sky 33.865 33.865 33.865 30 1.89 m/h 0 %
08:00:00 light rain 38.850 38.850 38.850 23 2.79 m/h 31 %
11:00:00 few clouds 43.574 43.574 43.574 17 3.1 m/h 0 %
14:00:00 scattered clouds 46.650 46.650 46.650 12 4.88 m/h 0 %
17:00:00 scattered clouds 45.680 45.680 45.680 9 4.93 m/h 0 %
20:00:00 clear sky 38.194 38.194 38.194 22 4.92 m/h 0 %
23:00:00 clear sky 36.235 36.235 36.235 24 2.98 m/h 0 %
28-Jun-2019 (Fri)
02:00:00 clear sky 35.128 35.128 35.128 25 2.89 m/h 0 %
05:00:00 clear sky 33.728 33.728 33.728 29 2.59 m/h 0 %
08:00:00 clear sky 37.599 37.599 37.599 31 5.92 m/h 0 %
11:00:00 clear sky 43.525 43.525 43.525 19 4.5 m/h 0 %
14:00:00 clear sky 46.131 46.131 46.131 13 4.21 m/h 0 %
17:00:00 scattered clouds 45.650 45.650 45.650 12 5.78 m/h 0 %
20:00:00 clear sky 39.750 39.750 39.750 19 3.22 m/h 0 %
23:00:00 clear sky 37.172 37.172 37.172 24 2.95 m/h 0 %
29-Jun-2019 (Sat)
02:00:00 clear sky 36.772 36.772 36.772 26 4.31 m/h 0 %
05:00:00 clear sky 35.309 35.309 35.309 32 5.81 m/h 0 %
08:00:00 clear sky 37.767 37.767 37.767 32 7.42 m/h 0 %
11:00:00 clear sky 43.950 43.950 43.950 18 6.22 m/h 0 %
14:00:00 clear sky 47.150 47.150 47.150 11 5.64 m/h 0 %
17:00:00 clear sky 46.291 46.291 46.291 11 5.82 m/h 0 %
20:00:00 clear sky 41.650 41.650 41.650 14 5.23 m/h 0 %
23:00:00 clear sky 39.150 39.150 39.150 19 6.46 m/h 0 %
30-Jun-2019 (Sun)
02:00:00 clear sky 37.196 37.196 37.196 24 5.8 m/h 0 %
05:00:00 clear sky 35.462 35.462 35.462 31 6.24 m/h 0 %
08:00:00 clear sky 37.622 37.622 37.622 36 7.18 m/h 0 %
11:00:00 clear sky 43.918 43.918 43.918 20 5.49 m/h 0 %
14:00:00 clear sky 47.509 47.509 47.509 12 5.67 m/h 0 %
17:00:00 clear sky 46.750 46.750 46.750 11 6.06 m/h 0 %
20:00:00 clear sky 41.850 41.850 41.850 16 4.49 m/h 0 %
23:00:00 clear sky 39.550 39.550 39.550 19 5.6 m/h 0 %
01-Jul-2019 (Mon)
02:00:00 clear sky 37.850 37.850 37.850 21 5.75 m/h 0 %
05:00:00 clear sky 35.435 35.435 35.435 35 7.34 m/h 0 %
08:00:00 clear sky 36.950 36.950 36.950 41 7.78 m/h 0 %
11:00:00 clear sky 43.650 43.650 43.650 24 6.44 m/h 0 %
14:00:00 clear sky 47.450 47.450 47.450 13 4.67 m/h 0 %

Famous Cities (60)